createdAt,value
2023-02-08T00:00:53.051Z,7.72
2023-02-08T00:03:19.858Z,9.00
2023-02-08T00:05:46.571Z,8.95
2023-02-08T00:08:13.419Z,8.55
2023-02-08T00:10:40.683Z,8.35
2023-02-08T00:13:07.987Z,8.20
2023-02-08T00:15:35.096Z,8.65
2023-02-08T00:18:01.911Z,7.88
2023-02-08T00:20:28.613Z,8.60
2023-02-08T00:22:55.315Z,8.40
2023-02-08T00:25:22.041Z,9.23
2023-02-08T00:27:48.991Z,9.07
2023-02-08T00:30:15.767Z,9.13
2023-02-08T00:32:42.725Z,8.85
2023-02-08T00:35:09.507Z,8.27
2023-02-08T00:37:36.237Z,9.18
2023-02-08T00:40:05.834Z,8.57
2023-02-08T00:42:32.925Z,9.18
2023-02-08T00:44:59.762Z,8.23
2023-02-08T00:47:26.633Z,8.80
2023-02-08T00:49:53.521Z,9.02
2023-02-08T00:52:20.675Z,9.50
2023-02-08T00:54:47.852Z,8.95
2023-02-08T00:57:15.551Z,9.35
2023-02-08T00:59:42.299Z,9.57
2023-02-08T01:02:09.344Z,9.63
2023-02-08T01:04:36.513Z,10.15
2023-02-08T01:07:04.088Z,9.02
2023-02-08T01:09:31.597Z,9.73
2023-02-08T01:11:58.348Z,10.68
2023-02-08T01:14:25.694Z,10.48
2023-02-08T01:16:52.666Z,10.70
2023-02-08T01:19:19.592Z,10.30
2023-02-08T01:21:46.734Z,10.15
2023-02-08T01:24:13.612Z,10.85
2023-02-08T01:26:40.330Z,9.60
2023-02-08T01:29:07.496Z,8.77
2023-02-08T01:31:37.383Z,9.52
2023-02-08T01:34:05.943Z,10.65
2023-02-08T01:36:34.150Z,11.40
2023-02-08T01:39:01.485Z,10.05
2023-02-08T01:41:34.754Z,11.30
2023-02-08T01:44:13.771Z,11.30
2023-02-08T01:46:49.369Z,11.77
2023-02-08T01:49:24.779Z,10.40
2023-02-08T01:52:03.227Z,10.20
2023-02-08T01:54:36.408Z,10.90
2023-02-08T01:57:03.975Z,10.25
2023-02-08T01:59:42.748Z,10.52
2023-02-08T02:02:14.877Z,10.55
2023-02-08T02:04:42.103Z,10.30
2023-02-08T02:07:09.118Z,11.15
2023-02-08T02:09:44.258Z,9.52
2023-02-08T02:12:12.935Z,10.23
2023-02-08T02:14:40.785Z,10.25
2023-02-08T02:17:07.759Z,9.98
2023-02-08T02:19:48.802Z,9.38
2023-02-08T02:22:32.677Z,8.70
2023-02-08T02:25:28.330Z,9.52
2023-02-08T02:28:01.223Z,9.80
2023-02-08T02:30:49.341Z,9.32
2023-02-08T02:33:36.403Z,9.70
2023-02-08T02:36:32.665Z,8.70
2023-02-08T02:39:14.420Z,8.95
2023-02-08T02:42:29.156Z,8.38
2023-02-08T02:45:51.864Z,8.27
2023-02-08T02:48:32.105Z,9.88
2023-02-08T02:51:08.973Z,8.27
2023-02-08T02:53:45.162Z,8.90
2023-02-08T02:56:24.535Z,8.52
2023-02-08T02:58:53.367Z,8.15
2023-02-08T03:01:26.927Z,8.48
2023-02-08T03:03:55.089Z,8.50
2023-02-08T03:06:57.440Z,7.47
2023-02-08T03:09:42.428Z,7.45
2023-02-08T03:12:36.169Z,9.00
2023-02-08T03:15:16.517Z,8.20
2023-02-08T03:17:56.993Z,8.35
2023-02-08T03:20:37.035Z,8.48
2023-02-08T03:23:19.374Z,7.72
2023-02-08T03:26:02.836Z,8.98
2023-02-08T03:28:59.290Z,8.43
2023-02-08T03:32:12.902Z,8.20
2023-02-08T03:34:56.718Z,8.25
2023-02-08T03:37:46.893Z,8.70
2023-02-08T03:40:39.329Z,9.13
2023-02-08T03:43:15.954Z,8.63
2023-02-08T03:45:49.779Z,8.52
2023-02-08T03:48:20.080Z,9.13
2023-02-08T03:50:52.323Z,7.97
2023-02-08T03:53:22.298Z,7.97
2023-02-08T03:55:54.481Z,8.85
2023-02-08T03:58:31.372Z,7.90
2023-02-08T04:01:14.932Z,8.82
2023-02-08T04:03:43.135Z,9.35
2023-02-08T04:06:10.324Z,9.73
2023-02-08T04:08:37.032Z,8.77
2023-02-08T04:11:03.763Z,8.50
2023-02-08T04:13:30.539Z,10.10
2023-02-08T04:15:57.439Z,9.68
2023-02-08T04:18:24.161Z,8.93
2023-02-08T04:20:50.865Z,9.32
2023-02-08T04:23:17.566Z,10.50
2023-02-08T04:25:44.299Z,10.10
2023-02-08T04:28:11.281Z,11.18
2023-02-08T04:30:38.071Z,11.15
2023-02-08T04:33:04.934Z,10.82
2023-02-08T04:35:31.817Z,9.80
2023-02-08T04:37:59.427Z,10.77
2023-02-08T04:40:26.253Z,10.52
2023-02-08T04:42:53.027Z,11.10
2023-02-08T04:45:20.801Z,11.63
2023-02-08T04:47:47.614Z,11.23
2023-02-08T04:50:14.740Z,11.30
2023-02-08T04:52:41.477Z,11.50
2023-02-08T04:55:08.367Z,11.70
2023-02-08T04:57:35.201Z,11.52
2023-02-08T05:00:02.379Z,11.00
2023-02-08T05:02:29.538Z,10.23
2023-02-08T05:04:56.433Z,10.65
2023-02-08T05:07:23.228Z,10.20
2023-02-08T05:09:49.927Z,11.05
2023-02-08T05:12:16.948Z,10.68
2023-02-08T05:14:46.573Z,10.50
2023-02-08T05:17:13.804Z,11.45
2023-02-08T05:19:41.342Z,10.35
2023-02-08T05:22:10.551Z,10.68
2023-02-08T05:24:39.948Z,10.23
2023-02-08T05:27:10.039Z,10.57
2023-02-08T05:29:40.719Z,10.13
2023-02-08T05:32:07.630Z,11.20
2023-02-08T05:34:38.475Z,9.65
2023-02-08T05:37:08.531Z,7.22
2023-02-08T05:39:36.763Z,9.48
2023-02-08T05:42:03.859Z,9.25
2023-02-08T05:44:34.174Z,10.15
2023-02-08T05:47:04.240Z,11.05
2023-02-08T05:49:34.408Z,9.55
2023-02-08T05:52:06.383Z,9.05
2023-02-08T05:54:36.690Z,9.50
2023-02-08T05:57:06.455Z,10.18
2023-02-08T05:59:36.499Z,10.68
2023-02-08T06:02:03.372Z,10.25
2023-02-08T06:04:31.223Z,9.35
2023-02-08T06:07:03.480Z,10.75
2023-02-08T06:09:30.687Z,11.38
2023-02-08T06:11:57.568Z,11.88
2023-02-08T06:14:27.857Z,10.10
2023-02-08T06:16:57.943Z,11.55
2023-02-08T06:19:25.177Z,11.20
2023-02-08T06:21:55.486Z,11.02
2023-02-08T06:24:28.343Z,10.68
2023-02-08T06:26:59.085Z,12.07
2023-02-08T06:29:26.888Z,11.32
2023-02-08T06:32:00.433Z,12.35
2023-02-08T06:34:32.164Z,10.77
2023-02-08T06:37:03.354Z,10.73
2023-02-08T06:39:34.941Z,10.95
2023-02-08T06:42:01.833Z,10.75
2023-02-08T06:44:33.295Z,12.02
2023-02-08T06:49:27.224Z,11.38
2023-02-08T06:51:54.106Z,11.77
2023-02-08T06:54:24.657Z,11.80
2023-02-08T06:56:54.736Z,11.75
2023-02-08T06:59:21.873Z,12.23
2023-02-08T07:01:51.783Z,11.57
2023-02-08T07:04:18.752Z,11.63
2023-02-08T07:06:50.369Z,13.25
2023-02-08T07:09:17.830Z,12.10
2023-02-08T07:11:50.201Z,11.05
2023-02-08T07:14:17.189Z,11.70
2023-02-08T07:16:49.489Z,12.15
2023-02-08T07:19:16.373Z,12.13
2023-02-08T07:21:43.546Z,12.80
2023-02-08T07:24:10.419Z,12.23
2023-02-08T07:26:40.548Z,11.93
2023-02-08T07:29:11.278Z,11.23
2023-02-08T07:31:42.321Z,11.90
2023-02-08T07:34:09.180Z,11.63
2023-02-08T07:36:36.264Z,11.18
2023-02-08T07:39:06.510Z,12.10
2023-02-08T07:41:36.670Z,12.20
2023-02-08T07:44:03.983Z,10.98
2023-02-08T07:46:34.317Z,12.07
2023-02-08T07:49:04.489Z,11.25
2023-02-08T07:51:31.341Z,10.77
2023-02-08T07:54:02.702Z,10.57
2023-02-08T07:56:29.735Z,11.15
2023-02-08T07:58:56.561Z,11.95
2023-02-08T08:01:26.613Z,10.40
2023-02-08T08:03:56.903Z,12.00
2023-02-08T08:06:24.259Z,13.30
2023-02-08T08:08:51.568Z,11.70
2023-02-08T08:11:20.061Z,11.85
2023-02-08T08:13:50.208Z,13.10
2023-02-08T08:16:17.610Z,11.60
2023-02-08T08:18:44.925Z,12.45
2023-02-08T08:21:15.470Z,13.00
2023-02-08T08:23:45.996Z,12.77
2023-02-08T08:26:16.683Z,13.13
2023-02-08T08:28:47.929Z,9.30
2023-02-08T08:31:21.612Z,13.32
2023-02-08T08:33:49.226Z,13.20
2023-02-08T08:36:20.527Z,14.30
2023-02-08T08:38:52.042Z,13.05
2023-02-08T08:43:46.052Z,12.80
2023-02-08T08:46:16.873Z,13.57
2023-02-08T08:48:44.796Z,13.05
2023-02-08T08:51:12.438Z,13.10
2023-02-08T08:53:43.153Z,13.63
2023-02-08T08:56:10.511Z,13.23
2023-02-08T08:58:40.137Z,13.10
2023-02-08T09:01:07.296Z,14.50
2023-02-08T09:03:34.459Z,14.02
2023-02-08T09:06:08.892Z,14.15
2023-02-08T09:08:36.003Z,13.68
2023-02-08T09:11:07.485Z,13.93
2023-02-08T09:16:08.208Z,14.52
2023-02-08T09:18:35.635Z,13.77
2023-02-08T09:21:14.373Z,13.65
2023-02-08T09:23:45.583Z,14.73
2023-02-08T09:26:15.021Z,13.48
2023-02-08T09:28:41.980Z,13.57
2023-02-08T09:31:22.846Z,14.73
2023-02-08T09:33:51.217Z,10.73
2023-02-08T09:36:18.516Z,14.88
2023-02-08T09:38:49.446Z,14.40
2023-02-08T09:41:44.307Z,13.93
2023-02-08T09:44:49.314Z,15.35
2023-02-08T09:47:37.510Z,13.63
2023-02-08T09:50:17.583Z,12.98
2023-02-08T09:53:01.155Z,15.25
2023-02-08T09:55:57.700Z,13.52
2023-02-08T09:58:55.168Z,13.88
2023-02-08T10:01:28.477Z,12.98
2023-02-08T10:04:20.066Z,12.88
2023-02-08T10:06:49.710Z,13.70
2023-02-08T10:09:22.617Z,12.38
2023-02-08T10:12:27.110Z,12.82
2023-02-08T10:15:03.880Z,12.63
2023-02-08T10:17:50.585Z,12.57
2023-02-08T10:20:45.955Z,12.60
2023-02-08T10:23:36.346Z,12.35
2023-02-08T10:26:24.453Z,12.18
2023-02-08T10:29:10.024Z,12.80
2023-02-08T10:31:58.469Z,13.52
2023-02-08T10:34:44.719Z,14.75
2023-02-08T10:37:31.697Z,13.68
2023-02-08T10:40:12.981Z,13.35
2023-02-08T10:42:40.841Z,14.10
2023-02-08T10:45:42.273Z,14.40
2023-02-08T10:48:15.935Z,13.57
2023-02-08T10:50:47.248Z,13.70
2023-02-08T10:53:17.419Z,15.45
2023-02-08T10:55:46.692Z,13.43
2023-02-08T10:58:21.057Z,14.63
2023-02-08T11:00:49.678Z,15.43
2023-02-08T11:03:21.111Z,14.23
2023-02-08T11:08:24.162Z,14.57
2023-02-08T11:11:07.438Z,14.57
2023-02-08T11:13:39.970Z,14.43
2023-02-08T11:16:11.139Z,15.45
2023-02-08T11:18:56.130Z,14.70
2023-02-08T11:21:34.873Z,15.75
2023-02-08T11:24:20.864Z,15.75
2023-02-08T11:26:51.308Z,14.70
2023-02-08T11:29:27.832Z,14.45
2023-02-08T11:32:01.117Z,15.00
2023-02-08T11:34:40.792Z,14.27
2023-02-08T11:37:28.934Z,15.80
2023-02-08T11:39:58.052Z,14.80
2023-02-08T11:42:36.185Z,14.60
2023-02-08T11:45:04.629Z,13.57
2023-02-08T11:47:34.186Z,14.00
2023-02-08T11:50:03.999Z,14.25
2023-02-08T11:52:32.556Z,14.88
2023-02-08T11:55:17.806Z,14.38
2023-02-08T11:58:11.570Z,15.35
2023-02-08T12:00:40.279Z,14.43
2023-02-08T12:03:18.390Z,14.23
2023-02-08T12:06:00.281Z,15.18
2023-02-08T12:08:30.061Z,14.15
2023-02-08T12:11:01.981Z,14.15
2023-02-08T12:14:07.065Z,14.00
2023-02-08T12:16:47.158Z,13.55
2023-02-08T12:19:19.359Z,13.32
2023-02-08T12:21:50.420Z,15.10
2023-02-08T12:24:55.723Z,13.18
2023-02-08T12:27:37.549Z,12.05
2023-02-08T12:30:20.064Z,13.27
2023-02-08T12:33:20.017Z,13.27
2023-02-08T12:36:05.140Z,12.20
2023-02-08T12:39:24.679Z,11.70
2023-02-08T12:42:18.622Z,11.48
2023-02-08T12:45:18.380Z,10.15
2023-02-08T12:48:04.086Z,10.40
2023-02-08T12:50:51.341Z,11.00
2023-02-08T12:53:53.528Z,10.20
2023-02-08T12:56:28.481Z,8.77
2023-02-08T12:59:08.149Z,9.05
2023-02-08T13:01:46.257Z,9.48
2023-02-08T13:04:35.875Z,8.98
2023-02-08T13:07:12.366Z,8.93
2023-02-08T13:10:05.674Z,7.80
2023-02-08T13:12:44.636Z,9.65
2023-02-08T13:15:30.707Z,8.90
2023-02-08T13:18:00.203Z,9.35
2023-02-08T13:20:45.280Z,8.40
2023-02-08T13:23:24.809Z,8.80
2023-02-08T13:25:55.951Z,7.90
2023-02-08T13:28:24.489Z,8.95
2023-02-08T13:31:00.268Z,8.05
2023-02-08T13:34:00.414Z,7.93
2023-02-08T13:36:33.128Z,8.95
2023-02-08T13:39:02.796Z,8.75
2023-02-08T13:41:31.794Z,9.02
2023-02-08T13:44:04.223Z,9.63
2023-02-08T13:46:45.430Z,9.32
2023-02-08T13:49:40.058Z,10.10
2023-02-08T13:52:11.933Z,10.02
2023-02-08T13:54:39.915Z,11.30
2023-02-08T13:57:50.593Z,10.23
2023-02-08T14:00:32.667Z,11.32
2023-02-08T14:03:14.389Z,13.10
2023-02-08T14:05:44.387Z,12.93
2023-02-08T14:08:31.425Z,14.07
2023-02-08T14:11:16.091Z,15.05
2023-02-08T14:13:54.768Z,15.35
2023-02-08T14:16:27.569Z,16.45
2023-02-08T14:19:00.822Z,16.40
2023-02-08T14:21:37.448Z,14.30
2023-02-08T14:24:07.898Z,14.35
2023-02-08T14:26:37.179Z,14.85
2023-02-08T14:29:06.405Z,14.57
2023-02-08T14:31:42.608Z,16.98
2023-02-08T14:34:38.053Z,14.85
2023-02-08T14:37:21.614Z,14.02
2023-02-08T14:39:52.882Z,14.55
2023-02-08T14:42:55.334Z,15.43
2023-02-08T14:45:36.090Z,17.63
2023-02-08T14:48:29.052Z,16.77
2023-02-08T14:51:09.980Z,17.73
2023-02-08T14:53:54.210Z,16.83
2023-02-08T14:56:32.772Z,17.33
2023-02-08T14:59:14.799Z,17.60
2023-02-08T15:01:53.176Z,17.27
2023-02-08T15:04:20.760Z,17.33
2023-02-08T15:07:31.768Z,15.95
2023-02-08T15:10:04.378Z,16.67
2023-02-08T15:12:43.423Z,16.85
2023-02-08T15:15:32.986Z,16.67
2023-02-08T15:18:01.721Z,17.02
2023-02-08T15:20:36.196Z,16.55
2023-02-08T15:23:05.153Z,17.08
2023-02-08T15:25:36.916Z,18.55
2023-02-08T15:28:25.606Z,18.20
2023-02-08T15:31:17.711Z,18.35
2023-02-08T15:33:45.857Z,21.00
2023-02-08T15:36:36.884Z,22.15
2023-02-08T15:39:12.133Z,20.25
2023-02-08T15:41:38.923Z,19.55
2023-02-08T15:44:22.154Z,21.20
2023-02-08T15:49:23.057Z,25.13
2023-02-08T15:51:51.058Z,23.42
2023-02-08T15:54:19.552Z,25.60
2023-02-08T15:56:59.082Z,27.60
2023-02-08T15:59:33.043Z,26.02
2023-02-08T16:02:19.412Z,25.55
2023-02-08T16:04:47.481Z,25.13
2023-02-08T16:07:28.283Z,30.33
2023-02-08T16:09:56.466Z,29.00
2023-02-08T16:12:26.084Z,26.90
2023-02-08T16:14:56.748Z,28.15
2023-02-08T16:17:36.384Z,27.85
2023-02-08T16:20:04.318Z,26.35
2023-02-08T16:22:34.299Z,26.63
2023-02-08T16:25:35.430Z,27.75
2023-02-08T16:28:04.594Z,27.17
2023-02-08T16:30:32.216Z,26.05
2023-02-08T16:33:06.698Z,27.55
2023-02-08T16:35:37.745Z,28.50
2023-02-08T16:38:10.192Z,26.23
2023-02-08T16:40:51.668Z,28.23
2023-02-08T16:45:48.078Z,25.00
2023-02-08T16:48:33.539Z,27.70
2023-02-08T16:51:01.161Z,27.10
2023-02-08T16:53:41.403Z,26.45
2023-02-08T16:56:10.056Z,27.27
2023-02-08T16:58:37.287Z,26.13
2023-02-08T17:01:04.728Z,26.40
2023-02-08T17:03:32.858Z,26.88
2023-02-08T17:06:01.131Z,28.13
2023-02-08T17:08:28.314Z,26.35
2023-02-08T17:10:59.095Z,29.02
2023-02-08T17:13:29.474Z,28.15
2023-02-08T17:16:00.300Z,29.42
2023-02-08T17:18:27.289Z,28.70
2023-02-08T17:20:59.506Z,27.92
2023-02-08T17:23:26.772Z,27.73
2023-02-08T17:25:53.915Z,27.95
2023-02-08T17:28:21.936Z,29.92
2023-02-08T17:30:50.125Z,29.45
2023-02-08T17:33:20.251Z,27.80
2023-02-08T17:35:51.860Z,29.45
2023-02-08T17:38:20.331Z,28.35
2023-02-08T17:40:47.790Z,28.33
2023-02-08T17:43:15.542Z,28.60
2023-02-08T17:45:44.712Z,31.25
2023-02-08T17:48:15.889Z,28.25
2023-02-08T17:50:47.978Z,29.13
2023-02-08T17:53:19.309Z,25.55
2023-02-08T17:55:50.412Z,27.02
2023-02-08T17:58:21.905Z,28.13
2023-02-08T18:03:17.372Z,25.05
2023-02-08T18:05:44.317Z,25.05
2023-02-08T18:08:11.329Z,27.15
2023-02-08T18:10:38.409Z,26.30
2023-02-08T18:13:05.348Z,25.35
2023-02-08T18:15:32.518Z,26.55
2023-02-08T18:18:06.624Z,25.38
2023-02-08T18:20:33.750Z,23.83
2023-02-08T18:23:00.905Z,25.02
2023-02-08T18:25:28.321Z,25.63
2023-02-08T18:27:56.891Z,25.88
2023-02-08T18:30:28.131Z,25.13
2023-02-08T18:32:58.741Z,24.50
2023-02-08T18:35:26.935Z,23.45
2023-02-08T18:37:53.742Z,24.98
2023-02-08T18:40:20.796Z,24.27
2023-02-08T18:42:47.511Z,25.35
2023-02-08T18:45:14.256Z,25.30
2023-02-08T18:47:41.200Z,23.73
2023-02-08T18:50:09.182Z,24.38
2023-02-08T18:52:35.927Z,25.35
2023-02-08T18:55:02.718Z,24.23
2023-02-08T18:57:29.521Z,23.38
2023-02-08T18:59:56.372Z,24.10
2023-02-08T19:02:26.348Z,25.30
2023-02-08T19:04:53.152Z,23.60
2023-02-08T19:07:20.065Z,25.20
2023-02-08T19:09:47.395Z,24.65
2023-02-08T19:12:15.575Z,25.05
2023-02-08T19:14:43.556Z,23.23
2023-02-08T19:17:14.995Z,24.88
2023-02-08T19:19:42.521Z,22.83
2023-02-08T19:22:09.630Z,22.13
2023-02-08T19:24:36.553Z,23.27
2023-02-08T19:27:06.198Z,20.85
2023-02-08T19:29:34.620Z,21.20
2023-02-08T19:32:03.773Z,23.30
2023-02-08T19:34:30.617Z,22.17
2023-02-08T19:36:57.625Z,20.45
2023-02-08T19:39:27.143Z,20.02
2023-02-08T19:41:59.051Z,16.92
2023-02-08T19:44:30.732Z,19.17
2023-02-08T19:47:01.052Z,17.77
2023-02-08T19:49:28.534Z,19.83
2023-02-08T19:51:59.164Z,14.80
2023-02-08T19:54:32.272Z,10.68
2023-02-08T19:57:00.129Z,15.63
2023-02-08T19:59:34.280Z,15.35
2023-02-08T20:02:02.430Z,13.43
2023-02-08T20:04:29.504Z,13.85
2023-02-08T20:06:56.588Z,13.25
2023-02-08T20:09:23.504Z,13.88
2023-02-08T20:12:00.117Z,13.75
2023-02-08T20:14:33.933Z,12.38
2023-02-08T20:17:08.267Z,11.80
2023-02-08T20:19:38.318Z,13.18
2023-02-08T20:22:05.249Z,11.77
2023-02-08T20:24:32.093Z,11.85
2023-02-08T20:27:01.037Z,11.65
2023-02-08T20:29:31.885Z,12.50
2023-02-08T20:32:02.251Z,12.40
2023-02-08T20:34:33.130Z,10.98
2023-02-08T20:37:07.293Z,8.15
2023-02-08T20:39:38.540Z,12.23
2023-02-08T20:42:14.026Z,11.63
2023-02-08T20:44:46.200Z,12.23
2023-02-08T20:47:21.705Z,11.05
2023-02-08T20:49:49.538Z,12.07
2023-02-08T20:52:19.431Z,12.82
2023-02-08T20:54:46.820Z,10.70
2023-02-08T20:57:18.253Z,12.80
2023-02-08T21:02:25.737Z,11.60
2023-02-08T21:04:56.819Z,12.27
2023-02-08T21:07:24.703Z,12.95
2023-02-08T21:09:51.484Z,13.48
2023-02-08T21:12:25.805Z,11.75
2023-02-08T21:14:58.741Z,13.00
2023-02-08T21:17:25.642Z,12.98
2023-02-08T21:19:55.786Z,12.25
2023-02-08T21:22:22.754Z,13.30
2023-02-08T21:24:49.525Z,12.32
2023-02-08T21:27:16.434Z,12.77
2023-02-08T21:29:46.495Z,12.77
2023-02-08T21:32:13.428Z,11.77
2023-02-08T21:34:44.229Z,12.00
2023-02-08T21:37:11.068Z,13.05
2023-02-08T21:39:37.786Z,12.10
2023-02-08T21:42:04.672Z,11.73
2023-02-08T21:44:34.356Z,11.70
2023-02-08T21:47:05.397Z,11.70
2023-02-08T21:49:50.843Z,11.63
2023-02-08T21:52:36.287Z,11.25
2023-02-08T21:55:03.057Z,9.70
2023-02-08T21:57:30.806Z,9.38
2023-02-08T21:59:59.747Z,10.35
2023-02-08T22:02:28.924Z,9.98
2023-02-08T22:05:22.138Z,11.00
2023-02-08T22:07:54.171Z,10.05
2023-02-08T22:10:23.206Z,10.20
2023-02-08T22:12:50.047Z,9.88
2023-02-08T22:15:19.209Z,10.15
2023-02-08T22:17:46.772Z,9.43
2023-02-08T22:20:15.137Z,10.70
2023-02-08T22:22:41.902Z,10.57
2023-02-08T22:25:11.012Z,10.32
2023-02-08T22:27:41.883Z,9.45
2023-02-08T22:30:12.109Z,9.40
2023-02-08T22:32:43.790Z,9.65
2023-02-08T22:35:14.811Z,9.30
2023-02-08T22:37:42.993Z,10.48
2023-02-08T22:40:11.949Z,9.93
2023-02-08T22:42:40.168Z,9.50
2023-02-08T22:45:07.290Z,9.63
2023-02-08T22:47:34.293Z,9.80
2023-02-08T22:50:01.463Z,9.60
2023-02-08T22:52:28.443Z,10.98
2023-02-08T22:54:56.172Z,9.65
2023-02-08T22:57:23.056Z,9.95
2023-02-08T22:59:49.835Z,9.77
2023-02-08T23:02:17.902Z,9.45
2023-02-08T23:04:45.038Z,9.48
2023-02-08T23:07:11.841Z,11.20
2023-02-08T23:09:38.793Z,9.55
2023-02-08T23:12:05.961Z,9.82
2023-02-08T23:14:34.197Z,9.30
2023-02-08T23:17:04.086Z,11.32
2023-02-08T23:19:30.957Z,9.38
2023-02-08T23:22:00.797Z,10.13
2023-02-08T23:24:28.029Z,9.82
2023-02-08T23:26:58.171Z,10.45
2023-02-08T23:29:25.436Z,10.20
2023-02-08T23:31:52.247Z,10.23
2023-02-08T23:34:19.464Z,9.15
2023-02-08T23:36:46.273Z,11.18
2023-02-08T23:39:13.106Z,9.55
2023-02-08T23:41:39.850Z,10.15
2023-02-08T23:44:06.817Z,9.40
2023-02-08T23:46:33.800Z,10.15
2023-02-08T23:49:00.577Z,9.70
2023-02-08T23:51:27.351Z,10.60
2023-02-08T23:53:55.521Z,9.48
2023-02-08T23:56:28.177Z,10.00
2023-02-08T23:58:57.467Z,9.20
